sensor_id;sensor_type;location;lat;lon;timestamp;P1;durP1;ratioP1;P2;durP2;ratioP2
34549;SDS011;66080;52.078;5.626;2023-07-30T00:01:41;7.20;;;4.07;;
34549;SDS011;66080;52.078;5.626;2023-07-30T00:04:07;18.27;;;3.92;;
34549;SDS011;66080;52.078;5.626;2023-07-30T00:06:32;9.93;;;3.20;;
34549;SDS011;66080;52.078;5.626;2023-07-30T00:08:58;11.40;;;3.35;;
34549;SDS011;66080;52.078;5.626;2023-07-30T00:11:24;4.35;;;2.70;;
34549;SDS011;66080;52.078;5.626;2023-07-30T00:13:49;6.65;;;2.47;;
34549;SDS011;66080;52.078;5.626;2023-07-30T00:16:15;22.90;;;3.92;;
34549;SDS011;66080;52.078;5.626;2023-07-30T00:18:40;9.82;;;3.28;;
34549;SDS011;66080;52.078;5.626;2023-07-30T00:21:06;15.25;;;3.58;;
34549;SDS011;66080;52.078;5.626;2023-07-30T00:23:31;6.78;;;2.72;;
34549;SDS011;66080;52.078;5.626;2023-07-30T00:25:57;11.93;;;2.75;;
34549;SDS011;66080;52.078;5.626;2023-07-30T00:28:22;8.75;;;2.92;;
34549;SDS011;66080;52.078;5.626;2023-07-30T00:30:48;10.32;;;4.38;;
34549;SDS011;66080;52.078;5.626;2023-07-30T00:33:13;6.28;;;3.10;;
34549;SDS011;66080;52.078;5.626;2023-07-30T00:35:39;4.30;;;3.15;;
34549;SDS011;66080;52.078;5.626;2023-07-30T00:38:04;12.43;;;4.38;;
34549;SDS011;66080;52.078;5.626;2023-07-30T00:40:30;3.63;;;2.35;;
34549;SDS011;66080;52.078;5.626;2023-07-30T00:42:56;9.95;;;3.28;;
34549;SDS011;66080;52.078;5.626;2023-07-30T00:45:21;6.30;;;2.35;;
34549;SDS011;66080;52.078;5.626;2023-07-30T00:47:47;12.77;;;3.20;;
34549;SDS011;66080;52.078;5.626;2023-07-30T00:50:12;5.38;;;2.70;;
34549;SDS011;66080;52.078;5.626;2023-07-30T00:52:40;5.15;;;2.83;;
34549;SDS011;66080;52.078;5.626;2023-07-30T00:55:07;7.28;;;2.55;;
34549;SDS011;66080;52.078;5.626;2023-07-30T00:57:34;10.18;;;3.22;;
34549;SDS011;66080;52.078;5.626;2023-07-30T01:00:02;10.07;;;3.38;;
34549;SDS011;66080;52.078;5.626;2023-07-30T01:02:30;6.85;;;3.05;;
34549;SDS011;66080;52.078;5.626;2023-07-30T01:04:56;7.57;;;2.92;;
34549;SDS011;66080;52.078;5.626;2023-07-30T01:07:24;8.77;;;2.90;;
34549;SDS011;66080;52.078;5.626;2023-07-30T01:09:50;4.05;;;2.38;;
34549;SDS011;66080;52.078;5.626;2023-07-30T01:12:16;3.53;;;2.00;;
34549;SDS011;66080;52.078;5.626;2023-07-30T01:14:42;13.85;;;3.63;;
34549;SDS011;66080;52.078;5.626;2023-07-30T01:17:10;11.27;;;2.13;;
34549;SDS011;66080;52.078;5.626;2023-07-30T01:19:36;5.82;;;2.40;;
34549;SDS011;66080;52.078;5.626;2023-07-30T01:22:02;4.70;;;2.38;;
34549;SDS011;66080;52.078;5.626;2023-07-30T01:24:28;5.15;;;2.25;;
34549;SDS011;66080;52.078;5.626;2023-07-30T01:26:59;5.93;;;2.85;;
34549;SDS011;66080;52.078;5.626;2023-07-30T01:29:45;17.40;;;2.67;;
34549;SDS011;66080;52.078;5.626;2023-07-30T01:32:16;6.25;;;2.22;;
34549;SDS011;66080;52.078;5.626;2023-07-30T01:34:44;4.43;;;2.10;;
34549;SDS011;66080;52.078;5.626;2023-07-30T01:37:14;10.77;;;2.60;;
34549;SDS011;66080;52.078;5.626;2023-07-30T01:39:41;7.65;;;2.38;;
34549;SDS011;66080;52.078;5.626;2023-07-30T01:42:07;7.13;;;2.53;;
34549;SDS011;66080;52.078;5.626;2023-07-30T01:44:33;8.05;;;2.65;;
34549;SDS011;66080;52.078;5.626;2023-07-30T01:46:59;6.07;;;2.88;;
34549;SDS011;66080;52.078;5.626;2023-07-30T01:49:24;10.02;;;3.97;;
34549;SDS011;66080;52.078;5.626;2023-07-30T01:51:50;9.30;;;2.65;;
34549;SDS011;66080;52.078;5.626;2023-07-30T01:54:15;8.30;;;2.17;;
34549;SDS011;66080;52.078;5.626;2023-07-30T01:56:41;6.22;;;2.10;;
34549;SDS011;66080;52.078;5.626;2023-07-30T01:59:06;12.40;;;2.80;;
34549;SDS011;66080;52.078;5.626;2023-07-30T02:01:32;12.13;;;2.70;;
34549;SDS011;66080;52.078;5.626;2023-07-30T02:03:57;10.95;;;4.03;;
34549;SDS011;66080;52.078;5.626;2023-07-30T02:06:23;16.65;;;3.10;;
34549;SDS011;66080;52.078;5.626;2023-07-30T02:08:48;7.25;;;2.80;;
34549;SDS011;66080;52.078;5.626;2023-07-30T02:11:14;11.80;;;3.03;;
34549;SDS011;66080;52.078;5.626;2023-07-30T02:13:39;12.98;;;2.90;;
34549;SDS011;66080;52.078;5.626;2023-07-30T02:16:06;15.02;;;2.95;;
34549;SDS011;66080;52.078;5.626;2023-07-30T02:18:31;7.68;;;2.65;;
34549;SDS011;66080;52.078;5.626;2023-07-30T02:20:57;8.48;;;3.13;;
34549;SDS011;66080;52.078;5.626;2023-07-30T02:23:23;11.45;;;3.00;;
34549;SDS011;66080;52.078;5.626;2023-07-30T02:25:48;14.30;;;4.03;;
34549;SDS011;66080;52.078;5.626;2023-07-30T02:28:14;13.02;;;3.35;;
34549;SDS011;66080;52.078;5.626;2023-07-30T02:30:39;8.85;;;1.90;;
34549;SDS011;66080;52.078;5.626;2023-07-30T02:33:05;7.38;;;2.75;;
34549;SDS011;66080;52.078;5.626;2023-07-30T02:35:30;9.45;;;2.70;;
34549;SDS011;66080;52.078;5.626;2023-07-30T02:37:56;9.93;;;3.25;;
34549;SDS011;66080;52.078;5.626;2023-07-30T02:40:21;10.48;;;2.47;;
34549;SDS011;66080;52.078;5.626;2023-07-30T02:42:47;13.35;;;3.67;;
34549;SDS011;66080;52.078;5.626;2023-07-30T02:45:13;16.65;;;3.88;;
34549;SDS011;66080;52.078;5.626;2023-07-30T02:47:38;15.18;;;3.30;;
34549;SDS011;66080;52.078;5.626;2023-07-30T02:50:04;15.77;;;3.10;;
34549;SDS011;66080;52.078;5.626;2023-07-30T02:52:31;14.75;;;3.65;;
34549;SDS011;66080;52.078;5.626;2023-07-30T02:54:56;13.57;;;5.05;;
34549;SDS011;66080;52.078;5.626;2023-07-30T02:57:22;14.68;;;4.65;;
34549;SDS011;66080;52.078;5.626;2023-07-30T02:59:47;10.05;;;3.78;;
34549;SDS011;66080;52.078;5.626;2023-07-30T03:02:13;11.90;;;3.38;;
34549;SDS011;66080;52.078;5.626;2023-07-30T03:04:38;8.52;;;3.67;;
34549;SDS011;66080;52.078;5.626;2023-07-30T03:07:04;7.65;;;2.92;;
34549;SDS011;66080;52.078;5.626;2023-07-30T03:09:30;17.85;;;4.90;;
34549;SDS011;66080;52.078;5.626;2023-07-30T03:11:55;15.52;;;3.95;;
34549;SDS011;66080;52.078;5.626;2023-07-30T03:14:21;9.57;;;3.38;;
34549;SDS011;66080;52.078;5.626;2023-07-30T03:16:47;9.43;;;4.18;;
34549;SDS011;66080;52.078;5.626;2023-07-30T03:19:13;5.93;;;3.20;;
34549;SDS011;66080;52.078;5.626;2023-07-30T03:21:39;8.85;;;4.35;;
34549;SDS011;66080;52.078;5.626;2023-07-30T03:24:05;8.30;;;3.45;;
34549;SDS011;66080;52.078;5.626;2023-07-30T03:26:30;14.43;;;4.03;;
34549;SDS011;66080;52.078;5.626;2023-07-30T03:28:56;13.45;;;4.07;;
34549;SDS011;66080;52.078;5.626;2023-07-30T03:31:21;7.65;;;3.35;;
34549;SDS011;66080;52.078;5.626;2023-07-30T03:33:47;18.50;;;4.47;;
34549;SDS011;66080;52.078;5.626;2023-07-30T03:36:13;13.32;;;4.78;;
34549;SDS011;66080;52.078;5.626;2023-07-30T03:38:39;15.88;;;5.85;;
34549;SDS011;66080;52.078;5.626;2023-07-30T03:41:06;9.98;;;4.00;;
34549;SDS011;66080;52.078;5.626;2023-07-30T03:43:35;16.05;;;3.83;;
34549;SDS011;66080;52.078;5.626;2023-07-30T03:46:00;12.75;;;3.92;;
34549;SDS011;66080;52.078;5.626;2023-07-30T03:48:26;17.85;;;4.70;;
34549;SDS011;66080;52.078;5.626;2023-07-30T03:50:52;15.77;;;4.55;;
34549;SDS011;66080;52.078;5.626;2023-07-30T03:53:18;17.70;;;4.82;;
34549;SDS011;66080;52.078;5.626;2023-07-30T03:55:44;18.08;;;5.20;;
34549;SDS011;66080;52.078;5.626;2023-07-30T03:58:09;19.80;;;6.03;;
34549;SDS011;66080;52.078;5.626;2023-07-30T04:00:35;19.13;;;5.78;;
34549;SDS011;66080;52.078;5.626;2023-07-30T04:03:01;23.98;;;7.30;;
34549;SDS011;66080;52.078;5.626;2023-07-30T04:05:26;21.65;;;5.28;;
34549;SDS011;66080;52.078;5.626;2023-07-30T04:07:52;30.48;;;7.53;;
34549;SDS011;66080;52.078;5.626;2023-07-30T04:10:17;28.10;;;6.45;;
34549;SDS011;66080;52.078;5.626;2023-07-30T04:12:43;15.15;;;4.93;;
34549;SDS011;66080;52.078;5.626;2023-07-30T04:15:09;16.48;;;6.18;;
34549;SDS011;66080;52.078;5.626;2023-07-30T04:17:36;17.23;;;6.13;;
34549;SDS011;66080;52.078;5.626;2023-07-30T04:20:02;24.33;;;6.07;;
34549;SDS011;66080;52.078;5.626;2023-07-30T04:22:29;12.68;;;5.90;;
34549;SDS011;66080;52.078;5.626;2023-07-30T04:24:54;24.95;;;5.70;;
34549;SDS011;66080;52.078;5.626;2023-07-30T04:27:20;15.77;;;6.95;;
34549;SDS011;66080;52.078;5.626;2023-07-30T04:29:46;25.92;;;6.78;;
34549;SDS011;66080;52.078;5.626;2023-07-30T04:32:11;31.25;;;8.07;;
34549;SDS011;66080;52.078;5.626;2023-07-30T04:34:37;17.75;;;5.53;;
34549;SDS011;66080;52.078;5.626;2023-07-30T04:37:03;16.23;;;6.03;;
34549;SDS011;66080;52.078;5.626;2023-07-30T04:39:29;18.67;;;7.05;;
34549;SDS011;66080;52.078;5.626;2023-07-30T04:41:56;23.10;;;6.50;;
34549;SDS011;66080;52.078;5.626;2023-07-30T04:44:22;21.10;;;6.57;;
34549;SDS011;66080;52.078;5.626;2023-07-30T04:46:47;18.50;;;6.90;;
34549;SDS011;66080;52.078;5.626;2023-07-30T04:49:13;27.55;;;8.23;;
34549;SDS011;66080;52.078;5.626;2023-07-30T04:51:38;22.40;;;7.20;;
34549;SDS011;66080;52.078;5.626;2023-07-30T04:54:04;34.55;;;8.02;;
34549;SDS011;66080;52.078;5.626;2023-07-30T04:56:30;25.02;;;6.72;;
34549;SDS011;66080;52.078;5.626;2023-07-30T04:58:55;18.25;;;6.43;;
34549;SDS011;66080;52.078;5.626;2023-07-30T05:01:21;27.50;;;7.63;;
34549;SDS011;66080;52.078;5.626;2023-07-30T05:03:46;23.30;;;7.53;;
34549;SDS011;66080;52.078;5.626;2023-07-30T05:06:12;26.20;;;9.10;;
34549;SDS011;66080;52.078;5.626;2023-07-30T05:08:37;22.20;;;6.82;;
34549;SDS011;66080;52.078;5.626;2023-07-30T05:11:03;23.77;;;8.32;;
34549;SDS011;66080;52.078;5.626;2023-07-30T05:13:28;32.60;;;8.00;;
34549;SDS011;66080;52.078;5.626;2023-07-30T05:15:54;26.42;;;7.53;;
34549;SDS011;66080;52.078;5.626;2023-07-30T05:18:19;25.90;;;8.10;;
34549;SDS011;66080;52.078;5.626;2023-07-30T05:20:45;19.92;;;9.27;;
34549;SDS011;66080;52.078;5.626;2023-07-30T05:23:11;29.55;;;8.15;;
34549;SDS011;66080;52.078;5.626;2023-07-30T05:25:37;22.15;;;7.88;;
34549;SDS011;66080;52.078;5.626;2023-07-30T05:28:02;32.22;;;9.40;;
34549;SDS011;66080;52.078;5.626;2023-07-30T05:30:28;22.27;;;8.77;;
34549;SDS011;66080;52.078;5.626;2023-07-30T05:32:54;24.45;;;8.15;;
34549;SDS011;66080;52.078;5.626;2023-07-30T05:35:19;40.20;;;8.88;;
34549;SDS011;66080;52.078;5.626;2023-07-30T05:37:45;29.92;;;8.15;;
34549;SDS011;66080;52.078;5.626;2023-07-30T05:40:10;25.00;;;7.55;;
34549;SDS011;66080;52.078;5.626;2023-07-30T05:42:36;29.33;;;8.55;;
34549;SDS011;66080;52.078;5.626;2023-07-30T05:45:01;28.40;;;9.10;;
34549;SDS011;66080;52.078;5.626;2023-07-30T05:47:27;23.85;;;7.78;;
34549;SDS011;66080;52.078;5.626;2023-07-30T05:49:53;21.63;;;8.65;;
34549;SDS011;66080;52.078;5.626;2023-07-30T05:52:18;25.58;;;7.72;;
34549;SDS011;66080;52.078;5.626;2023-07-30T05:54:44;20.67;;;7.80;;
34549;SDS011;66080;52.078;5.626;2023-07-30T05:57:09;28.67;;;9.50;;
34549;SDS011;66080;52.078;5.626;2023-07-30T05:59:35;22.77;;;7.53;;
34549;SDS011;66080;52.078;5.626;2023-07-30T06:02:03;33.28;;;7.90;;
34549;SDS011;66080;52.078;5.626;2023-07-30T06:04:29;42.53;;;8.80;;
34549;SDS011;66080;52.078;5.626;2023-07-30T06:06:55;30.08;;;9.65;;
34549;SDS011;66080;52.078;5.626;2023-07-30T06:09:22;28.75;;;9.68;;
34549;SDS011;66080;52.078;5.626;2023-07-30T06:11:48;29.65;;;9.23;;
34549;SDS011;66080;52.078;5.626;2023-07-30T06:14:14;22.67;;;9.93;;
34549;SDS011;66080;52.078;5.626;2023-07-30T06:16:39;28.08;;;10.85;;
34549;SDS011;66080;52.078;5.626;2023-07-30T06:19:05;26.85;;;10.07;;
34549;SDS011;66080;52.078;5.626;2023-07-30T06:21:30;25.23;;;9.85;;
34549;SDS011;66080;52.078;5.626;2023-07-30T06:23:56;25.13;;;11.15;;
34549;SDS011;66080;52.078;5.626;2023-07-30T06:26:21;24.85;;;9.10;;
34549;SDS011;66080;52.078;5.626;2023-07-30T06:28:47;26.10;;;9.75;;
34549;SDS011;66080;52.078;5.626;2023-07-30T06:31:12;26.80;;;10.27;;
34549;SDS011;66080;52.078;5.626;2023-07-30T06:33:38;27.17;;;10.00;;
34549;SDS011;66080;52.078;5.626;2023-07-30T06:36:04;27.58;;;9.05;;
34549;SDS011;66080;52.078;5.626;2023-07-30T06:38:29;31.35;;;10.80;;
34549;SDS011;66080;52.078;5.626;2023-07-30T06:40:55;21.52;;;9.45;;
34549;SDS011;66080;52.078;5.626;2023-07-30T06:43:22;38.70;;;11.55;;
34549;SDS011;66080;52.078;5.626;2023-07-30T06:45:48;32.88;;;10.50;;
34549;SDS011;66080;52.078;5.626;2023-07-30T06:48:14;26.45;;;10.63;;
34549;SDS011;66080;52.078;5.626;2023-07-30T06:50:40;29.65;;;9.70;;
34549;SDS011;66080;52.078;5.626;2023-07-30T06:53:06;20.42;;;7.78;;
34549;SDS011;66080;52.078;5.626;2023-07-30T06:55:32;28.45;;;9.02;;
34549;SDS011;66080;52.078;5.626;2023-07-30T06:57:58;24.60;;;8.18;;
34549;SDS011;66080;52.078;5.626;2023-07-30T07:00:24;28.02;;;9.40;;
34549;SDS011;66080;52.078;5.626;2023-07-30T07:02:49;32.28;;;10.23;;
34549;SDS011;66080;52.078;5.626;2023-07-30T07:05:15;24.20;;;7.72;;
34549;SDS011;66080;52.078;5.626;2023-07-30T07:07:41;27.27;;;9.20;;
34549;SDS011;66080;52.078;5.626;2023-07-30T07:10:07;26.63;;;8.80;;
34549;SDS011;66080;52.078;5.626;2023-07-30T07:12:33;22.27;;;7.68;;
34549;SDS011;66080;52.078;5.626;2023-07-30T07:14:58;22.05;;;8.25;;
34549;SDS011;66080;52.078;5.626;2023-07-30T07:17:26;22.70;;;8.23;;
34549;SDS011;66080;52.078;5.626;2023-07-30T07:19:52;30.98;;;9.00;;
34549;SDS011;66080;52.078;5.626;2023-07-30T07:22:17;21.42;;;8.60;;
34549;SDS011;66080;52.078;5.626;2023-07-30T07:24:44;21.80;;;7.57;;
34549;SDS011;66080;52.078;5.626;2023-07-30T07:27:10;28.50;;;7.88;;
34549;SDS011;66080;52.078;5.626;2023-07-30T07:29:35;30.77;;;9.52;;
34549;SDS011;66080;52.078;5.626;2023-07-30T07:32:01;22.90;;;7.75;;
34549;SDS011;66080;52.078;5.626;2023-07-30T07:34:27;20.55;;;7.63;;
34549;SDS011;66080;52.078;5.626;2023-07-30T07:36:52;19.00;;;6.57;;
34549;SDS011;66080;52.078;5.626;2023-07-30T07:39:18;26.83;;;6.50;;
34549;SDS011;66080;52.078;5.626;2023-07-30T07:41:44;32.22;;;7.53;;
34549;SDS011;66080;52.078;5.626;2023-07-30T07:44:10;22.63;;;6.68;;
34549;SDS011;66080;52.078;5.626;2023-07-30T07:46:35;26.30;;;7.70;;
34549;SDS011;66080;52.078;5.626;2023-07-30T07:49:01;24.23;;;5.10;;
34549;SDS011;66080;52.078;5.626;2023-07-30T07:51:27;19.00;;;4.43;;
34549;SDS011;66080;52.078;5.626;2023-07-30T07:53:52;22.25;;;6.20;;
34549;SDS011;66080;52.078;5.626;2023-07-30T07:56:18;9.48;;;3.90;;
34549;SDS011;66080;52.078;5.626;2023-07-30T07:58:43;22.30;;;6.20;;
34549;SDS011;66080;52.078;5.626;2023-07-30T08:01:09;22.52;;;5.10;;
34549;SDS011;66080;52.078;5.626;2023-07-30T08:03:34;9.15;;;4.57;;
34549;SDS011;66080;52.078;5.626;2023-07-30T08:06:00;9.38;;;4.32;;
34549;SDS011;66080;52.078;5.626;2023-07-30T08:08:26;16.88;;;4.13;;
34549;SDS011;66080;52.078;5.626;2023-07-30T08:10:52;13.95;;;4.03;;
34549;SDS011;66080;52.078;5.626;2023-07-30T08:13:17;45.55;;;5.15;;
34549;SDS011;66080;52.078;5.626;2023-07-30T08:15:43;20.10;;;4.00;;
34549;SDS011;66080;52.078;5.626;2023-07-30T08:18:09;19.70;;;4.85;;
34549;SDS011;66080;52.078;5.626;2023-07-30T08:20:34;18.65;;;4.97;;
34549;SDS011;66080;52.078;5.626;2023-07-30T08:23:00;21.65;;;4.63;;
34549;SDS011;66080;52.078;5.626;2023-07-30T08:25:26;24.20;;;6.60;;
34549;SDS011;66080;52.078;5.626;2023-07-30T08:27:51;14.77;;;4.68;;
34549;SDS011;66080;52.078;5.626;2023-07-30T08:30:17;20.45;;;5.15;;
34549;SDS011;66080;52.078;5.626;2023-07-30T08:32:43;21.83;;;5.10;;
34549;SDS011;66080;52.078;5.626;2023-07-30T08:35:09;26.10;;;7.05;;
34549;SDS011;66080;52.078;5.626;2023-07-30T08:37:35;20.48;;;5.60;;
34549;SDS011;66080;52.078;5.626;2023-07-30T08:40:01;19.35;;;5.25;;
34549;SDS011;66080;52.078;5.626;2023-07-30T08:42:26;17.67;;;4.68;;
34549;SDS011;66080;52.078;5.626;2023-07-30T08:44:52;16.13;;;4.90;;
34549;SDS011;66080;52.078;5.626;2023-07-30T08:47:18;32.42;;;6.93;;
34549;SDS011;66080;52.078;5.626;2023-07-30T08:49:43;14.60;;;4.22;;
34549;SDS011;66080;52.078;5.626;2023-07-30T08:52:09;15.60;;;3.88;;
34549;SDS011;66080;52.078;5.626;2023-07-30T08:54:36;17.30;;;4.38;;
34549;SDS011;66080;52.078;5.626;2023-07-30T08:57:03;21.35;;;4.82;;
34549;SDS011;66080;52.078;5.626;2023-07-30T08:59:31;20.33;;;4.68;;
34549;SDS011;66080;52.078;5.626;2023-07-30T09:02:00;18.77;;;4.63;;
34549;SDS011;66080;52.078;5.626;2023-07-30T09:04:26;9.60;;;3.88;;
34549;SDS011;66080;52.078;5.626;2023-07-30T09:06:54;7.90;;;3.50;;
34549;SDS011;66080;52.078;5.626;2023-07-30T09:09:21;14.80;;;4.63;;
34549;SDS011;66080;52.078;5.626;2023-07-30T09:11:52;28.45;;;6.95;;
34549;SDS011;66080;52.078;5.626;2023-07-30T09:14:20;21.17;;;6.05;;
34549;SDS011;66080;52.078;5.626;2023-07-30T09:16:46;17.55;;;4.43;;
34549;SDS011;66080;52.078;5.626;2023-07-30T09:19:16;9.50;;;3.00;;
34549;SDS011;66080;52.078;5.626;2023-07-30T09:21:42;11.40;;;3.00;;
34549;SDS011;66080;52.078;5.626;2023-07-30T09:24:08;16.73;;;3.30;;
34549;SDS011;66080;52.078;5.626;2023-07-30T09:26:44;15.00;;;2.95;;
34549;SDS011;66080;52.078;5.626;2023-07-30T09:29:11;11.07;;;3.08;;
34549;SDS011;66080;52.078;5.626;2023-07-30T09:31:47;11.50;;;2.78;;
34549;SDS011;66080;52.078;5.626;2023-07-30T09:34:16;10.70;;;4.30;;
34549;SDS011;66080;52.078;5.626;2023-07-30T09:36:46;9.32;;;3.10;;
34549;SDS011;66080;52.078;5.626;2023-07-30T09:39:19;14.05;;;3.05;;
34549;SDS011;66080;52.078;5.626;2023-07-30T09:41:45;10.25;;;3.22;;
34549;SDS011;66080;52.078;5.626;2023-07-30T09:44:11;11.98;;;3.50;;
34549;SDS011;66080;52.078;5.626;2023-07-30T09:46:47;15.32;;;4.65;;
34549;SDS011;66080;52.078;5.626;2023-07-30T09:49:14;18.63;;;2.63;;
34549;SDS011;66080;52.078;5.626;2023-07-30T09:51:40;10.95;;;1.85;;
34549;SDS011;66080;52.078;5.626;2023-07-30T09:54:06;7.35;;;2.10;;
34549;SDS011;66080;52.078;5.626;2023-07-30T09:56:34;6.07;;;1.75;;
34549;SDS011;66080;52.078;5.626;2023-07-30T09:59:01;4.82;;;1.75;;
34549;SDS011;66080;52.078;5.626;2023-07-30T10:01:27;6.40;;;2.03;;
34549;SDS011;66080;52.078;5.626;2023-07-30T10:03:56;13.75;;;2.30;;
34549;SDS011;66080;52.078;5.626;2023-07-30T10:06:22;9.63;;;1.98;;
34549;SDS011;66080;52.078;5.626;2023-07-30T10:08:50;7.25;;;1.92;;
34549;SDS011;66080;52.078;5.626;2023-07-30T10:11:19;7.40;;;2.15;;
34549;SDS011;66080;52.078;5.626;2023-07-30T10:13:45;9.98;;;2.17;;
34549;SDS011;66080;52.078;5.626;2023-07-30T10:16:12;7.93;;;2.28;;
34549;SDS011;66080;52.078;5.626;2023-07-30T10:18:38;4.28;;;1.67;;
34549;SDS011;66080;52.078;5.626;2023-07-30T10:21:09;6.60;;;2.17;;
34549;SDS011;66080;52.078;5.626;2023-07-30T10:23:36;9.93;;;2.25;;
34549;SDS011;66080;52.078;5.626;2023-07-30T10:26:11;14.25;;;2.35;;
34549;SDS011;66080;52.078;5.626;2023-07-30T10:28:37;13.60;;;3.20;;
34549;SDS011;66080;52.078;5.626;2023-07-30T10:31:08;8.68;;;2.00;;
34549;SDS011;66080;52.078;5.626;2023-07-30T10:33:43;8.52;;;2.08;;
34549;SDS011;66080;52.078;5.626;2023-07-30T10:36:10;4.60;;;1.58;;
34549;SDS011;66080;52.078;5.626;2023-07-30T10:38:35;11.00;;;2.35;;
34549;SDS011;66080;52.078;5.626;2023-07-30T10:41:02;11.60;;;1.80;;
34549;SDS011;66080;52.078;5.626;2023-07-30T10:43:33;17.13;;;2.78;;
34549;SDS011;66080;52.078;5.626;2023-07-30T10:46:00;8.80;;;2.70;;
34549;SDS011;66080;52.078;5.626;2023-07-30T10:50:59;8.50;;;2.30;;
34549;SDS011;66080;52.078;5.626;2023-07-30T10:53:26;12.57;;;2.05;;
34549;SDS011;66080;52.078;5.626;2023-07-30T10:55:52;5.88;;;1.95;;
34549;SDS011;66080;52.078;5.626;2023-07-30T10:58:18;10.35;;;2.67;;
34549;SDS011;66080;52.078;5.626;2023-07-30T11:00:44;3.28;;;1.17;;
34549;SDS011;66080;52.078;5.626;2023-07-30T11:03:09;9.82;;;1.73;;
34549;SDS011;66080;52.078;5.626;2023-07-30T11:05:37;5.10;;;1.13;;
34549;SDS011;66080;52.078;5.626;2023-07-30T11:08:03;6.20;;;1.90;;
34549;SDS011;66080;52.078;5.626;2023-07-30T11:10:29;5.47;;;1.05;;
34549;SDS011;66080;52.078;5.626;2023-07-30T11:12:54;8.52;;;1.75;;
34549;SDS011;66080;52.078;5.626;2023-07-30T11:15:22;7.45;;;1.92;;
34549;SDS011;66080;52.078;5.626;2023-07-30T11:17:51;6.47;;;1.65;;
34549;SDS011;66080;52.078;5.626;2023-07-30T11:20:26;9.55;;;1.60;;
34549;SDS011;66080;52.078;5.626;2023-07-30T11:22:52;4.25;;;1.45;;
34549;SDS011;66080;52.078;5.626;2023-07-30T11:25:18;4.18;;;1.33;;
34549;SDS011;66080;52.078;5.626;2023-07-30T11:27:47;5.35;;;1.25;;
34549;SDS011;66080;52.078;5.626;2023-07-30T11:30:14;6.90;;;1.30;;
34549;SDS011;66080;52.078;5.626;2023-07-30T11:32:40;5.43;;;1.30;;
34549;SDS011;66080;52.078;5.626;2023-07-30T11:35:12;2.90;;;1.10;;
34549;SDS011;66080;52.078;5.626;2023-07-30T11:37:40;10.68;;;2.05;;
34549;SDS011;66080;52.078;5.626;2023-07-30T11:40:08;7.82;;;1.92;;
34549;SDS011;66080;52.078;5.626;2023-07-30T11:42:35;6.13;;;1.20;;
34549;SDS011;66080;52.078;5.626;2023-07-30T11:45:21;6.32;;;1.30;;
34549;SDS011;66080;52.078;5.626;2023-07-30T11:47:47;2.45;;;1.02;;
34549;SDS011;66080;52.078;5.626;2023-07-30T11:50:13;3.80;;;2.47;;
34549;SDS011;66080;52.078;5.626;2023-07-30T11:52:52;4.65;;;1.95;;
34549;SDS011;66080;52.078;5.626;2023-07-30T11:55:19;5.28;;;1.52;;
34549;SDS011;66080;52.078;5.626;2023-07-30T11:57:44;4.60;;;1.38;;
34549;SDS011;66080;52.078;5.626;2023-07-30T12:00:10;2.58;;;0.85;;
34549;SDS011;66080;52.078;5.626;2023-07-30T12:02:37;7.72;;;2.08;;
34549;SDS011;66080;52.078;5.626;2023-07-30T12:05:03;3.67;;;1.20;;
34549;SDS011;66080;52.078;5.626;2023-07-30T12:07:29;4.68;;;1.33;;
34549;SDS011;66080;52.078;5.626;2023-07-30T12:10:08;3.03;;;1.00;;
34549;SDS011;66080;52.078;5.626;2023-07-30T12:12:46;27.02;;;2.50;;
34549;SDS011;66080;52.078;5.626;2023-07-30T12:15:15;7.80;;;1.95;;
34549;SDS011;66080;52.078;5.626;2023-07-30T12:17:41;6.00;;;1.55;;
34549;SDS011;66080;52.078;5.626;2023-07-30T12:20:06;5.40;;;1.40;;
34549;SDS011;66080;52.078;5.626;2023-07-30T12:22:33;12.15;;;2.58;;
34549;SDS011;66080;52.078;5.626;2023-07-30T12:25:00;7.68;;;1.95;;
34549;SDS011;66080;52.078;5.626;2023-07-30T12:27:28;2.90;;;0.80;;
34549;SDS011;66080;52.078;5.626;2023-07-30T12:29:53;3.92;;;0.95;;
34549;SDS011;66080;52.078;5.626;2023-07-30T12:32:19;8.82;;;0.82;;
34549;SDS011;66080;52.078;5.626;2023-07-30T12:34:45;2.15;;;1.10;;
34549;SDS011;66080;52.078;5.626;2023-07-30T12:37:10;9.60;;;1.48;;
34549;SDS011;66080;52.078;5.626;2023-07-30T12:39:36;4.63;;;0.90;;
34549;SDS011;66080;52.078;5.626;2023-07-30T12:42:01;8.55;;;1.77;;
34549;SDS011;66080;52.078;5.626;2023-07-30T12:44:27;5.03;;;1.02;;
34549;SDS011;66080;52.078;5.626;2023-07-30T12:46:53;6.22;;;1.35;;
34549;SDS011;66080;52.078;5.626;2023-07-30T12:49:18;6.72;;;1.75;;
34549;SDS011;66080;52.078;5.626;2023-07-30T12:51:44;5.63;;;1.33;;
34549;SDS011;66080;52.078;5.626;2023-07-30T12:54:09;10.32;;;1.80;;
34549;SDS011;66080;52.078;5.626;2023-07-30T12:56:35;6.40;;;1.33;;
34549;SDS011;66080;52.078;5.626;2023-07-30T12:59:01;9.55;;;1.83;;
34549;SDS011;66080;52.078;5.626;2023-07-30T13:01:26;5.85;;;1.67;;
34549;SDS011;66080;52.078;5.626;2023-07-30T13:03:52;7.32;;;0.95;;
34549;SDS011;66080;52.078;5.626;2023-07-30T13:06:20;8.25;;;1.63;;
34549;SDS011;66080;52.078;5.626;2023-07-30T13:08:46;3.80;;;0.93;;
34549;SDS011;66080;52.078;5.626;2023-07-30T13:11:12;4.20;;;0.70;;
34549;SDS011;66080;52.078;5.626;2023-07-30T13:13:37;2.90;;;0.98;;
34549;SDS011;66080;52.078;5.626;2023-07-30T13:16:03;4.43;;;0.73;;
34549;SDS011;66080;52.078;5.626;2023-07-30T13:18:29;2.70;;;0.95;;
34549;SDS011;66080;52.078;5.626;2023-07-30T13:20:54;1.75;;;0.85;;
34549;SDS011;66080;52.078;5.626;2023-07-30T13:23:20;8.65;;;1.60;;
34549;SDS011;66080;52.078;5.626;2023-07-30T13:25:45;3.05;;;0.90;;
34549;SDS011;66080;52.078;5.626;2023-07-30T13:28:11;4.18;;;0.90;;
34549;SDS011;66080;52.078;5.626;2023-07-30T13:30:36;4.57;;;1.60;;
34549;SDS011;66080;52.078;5.626;2023-07-30T13:33:02;5.68;;;1.38;;
34549;SDS011;66080;52.078;5.626;2023-07-30T13:35:28;3.70;;;0.65;;
34549;SDS011;66080;52.078;5.626;2023-07-30T13:37:53;6.10;;;1.27;;
34549;SDS011;66080;52.078;5.626;2023-07-30T13:40:19;5.22;;;1.05;;
34549;SDS011;66080;52.078;5.626;2023-07-30T13:42:45;7.65;;;1.23;;
34549;SDS011;66080;52.078;5.626;2023-07-30T13:45:10;9.13;;;0.95;;
34549;SDS011;66080;52.078;5.626;2023-07-30T13:47:36;6.15;;;1.00;;
34549;SDS011;66080;52.078;5.626;2023-07-30T13:50:01;1.33;;;0.75;;
34549;SDS011;66080;52.078;5.626;2023-07-30T13:52:28;5.88;;;1.30;;
34549;SDS011;66080;52.078;5.626;2023-07-30T13:54:53;3.33;;;0.90;;
34549;SDS011;66080;52.078;5.626;2023-07-30T13:57:22;5.07;;;0.68;;
34549;SDS011;66080;52.078;5.626;2023-07-30T13:59:49;3.13;;;1.15;;
34549;SDS011;66080;52.078;5.626;2023-07-30T14:02:15;3.92;;;1.10;;
34549;SDS011;66080;52.078;5.626;2023-07-30T14:04:40;8.90;;;2.30;;
34549;SDS011;66080;52.078;5.626;2023-07-30T14:07:06;1.60;;;1.23;;
34549;SDS011;66080;52.078;5.626;2023-07-30T14:09:31;1.65;;;1.42;;
34549;SDS011;66080;52.078;5.626;2023-07-30T14:11:59;5.78;;;1.65;;
34549;SDS011;66080;52.078;5.626;2023-07-30T14:14:25;0.98;;;0.65;;
34549;SDS011;66080;52.078;5.626;2023-07-30T14:16:52;3.55;;;0.77;;
34549;SDS011;66080;52.078;5.626;2023-07-30T14:19:18;2.10;;;0.93;;
34549;SDS011;66080;52.078;5.626;2023-07-30T14:21:43;4.40;;;1.00;;
34549;SDS011;66080;52.078;5.626;2023-07-30T14:24:10;6.43;;;1.00;;
34549;SDS011;66080;52.078;5.626;2023-07-30T14:26:36;3.40;;;1.48;;
34549;SDS011;66080;52.078;5.626;2023-07-30T14:29:01;3.70;;;1.35;;
34549;SDS011;66080;52.078;5.626;2023-07-30T14:31:27;4.25;;;1.63;;
34549;SDS011;66080;52.078;5.626;2023-07-30T14:33:52;9.73;;;1.92;;
34549;SDS011;66080;52.078;5.626;2023-07-30T14:36:18;5.57;;;2.05;;
34549;SDS011;66080;52.078;5.626;2023-07-30T14:38:43;9.43;;;4.55;;